WetterOnline ( https://www.wetteronline.at )

Wetter aktuell Lübben

Aktuelles Wetter: Baruth (55m)

6-stündlich | Neueste Meldungen
Ortszeit Temperatur Wetter
Sa, 20.07. 20:00 27.7° C wolkig
Sa, 20.07. 14:00 28.8° C fast wolkenlos
Sa, 20.07. 8:00 20.4° C bedeckt
Sa, 20.07. 2:00 15.8° C bedeckt
Fr, 19.07. 20:00 25.5° C wolkig
Fr, 19.07. 14:00 28.0° C fast wolkenlos
Fr, 19.07. 8:00 18.8° C wolkenlos
Fr, 19.07. 2:00 13.5° C Nebel
Ortszeit Temperatur Wetter
So, 21.07. 0:30 18.6° C wolkenlos
So, 21.07. 0:20 18.6° C wolkenlos
So, 21.07. 0:10 19.1° C wolkenlos
So, 21.07. 0:00 17.9° C leicht bewölkt
Sa, 20.07. 23:50 17.9° C leicht bewölkt
Sa, 20.07. 23:40 18.6° C bedeckt
Sa, 20.07. 23:30 18.9° C wolkig
Sa, 20.07. 23:00 20.4° C wolkig
Sa, 20.07. 22:30 21.0° C wolkig
Sa, 20.07. 22:00 22.6° C wolkig
Sa, 20.07. 21:30 24.2° C wolkig
Ortszeit Relative Feuchte Sichtweite
Sa, 20.07. 20:00 46% 50 km
Sa, 20.07. 14:00 41% 45 km
Sa, 20.07. 8:00 71% 40 km
Sa, 20.07. 2:00 88% 40 km
Fr, 19.07. 20:00 49% 60 km
Fr, 19.07. 14:00 39% 60 km
Fr, 19.07. 8:00 74% 50 km
Fr, 19.07. 2:00 96% 26 km
Ortszeit Relative Feuchte Sichtweite
So, 21.07. 0:30 75% 55 km
So, 21.07. 0:20 75% -
So, 21.07. 0:10 73% -
So, 21.07. 0:00 81% 40 km
Sa, 20.07. 23:50 81% -
Sa, 20.07. 23:40 75% -
Sa, 20.07. 23:30 76% 30 km
Sa, 20.07. 23:00 67% 50 km
Sa, 20.07. 22:30 67% 55 km
Sa, 20.07. 22:00 60% 50 km
Sa, 20.07. 21:30 54% 60 km
Ortszeit Niederschlagsmenge Niederschlagsart
Sa, 20.07. 20:00 0.0 l/m2 in 12 Std. -
Sa, 20.07. 14:00 0.0 l/m2 in 6 Std. -
Sa, 20.07. 8:00 0.0 l/m2 in 12 Std. -
Sa, 20.07. 2:00 0.0 l/m2 in 6 Std. -
Fr, 19.07. 20:00 0.0 l/m2 in 12 Std. -
Fr, 19.07. 14:00 0.0 l/m2 in 6 Std. -
Fr, 19.07. 8:00 0.0 l/m2 in 12 Std. -
Fr, 19.07. 2:00 0.0 l/m2 in 6 Std. -
Ortszeit Niederschlagsmenge Niederschlagsart
So, 21.07. 0:30 0.0 l/m2 in 30 Min -
So, 21.07. 0:20 keine Meldung -
So, 21.07. 0:10 keine Meldung -
So, 21.07. 0:00 0.0 l/m2 in 1 Std. -
Sa, 20.07. 23:50 keine Meldung -
Sa, 20.07. 23:40 keine Meldung -
Sa, 20.07. 23:30 0.0 l/m2 in 30 Min -
Sa, 20.07. 23:00 0.0 l/m2 in 1 Std. -
Sa, 20.07. 22:30 0.0 l/m2 in 30 Min -
Sa, 20.07. 22:00 0.0 l/m2 in 1 Std. -
Sa, 20.07. 21:30 0.0 l/m2 in 30 Min -
Ortszeit Stärke Spitze Richtung
km/h Bft. km/h Grad Sektor
Sa, 20.07. 20:00 11 2 25 120° SO
Sa, 20.07. 14:00 9 2 31 130° SO
Sa, 20.07. 8:00 7 2 11 120° SO
Sa, 20.07. 2:00 0 0 11 - -
Fr, 19.07. 20:00 4 1 25 50° NO
Fr, 19.07. 14:00 7 2 25 50° NO
Fr, 19.07. 8:00 4 1 11 120° SO
Fr, 19.07. 2:00 2 1 9 360° N
Ortszeit Stärke Spitze Richtung
km/h Bft. km/h Grad Sektor
So, 21.07. 0:30 7 2 11 120° SO
So, 21.07. 0:20 7 2 - 120° SO
So, 21.07. 0:10 7 2 - 120° SO
So, 21.07. 0:00 7 2 7 130° SO
Sa, 20.07. 23:50 7 2 - 130° SO
Sa, 20.07. 23:40 7 2 - 110° O
Sa, 20.07. 23:30 4 1 7 100° O
Sa, 20.07. 23:00 6 1 7 90° O
Sa, 20.07. 22:30 4 1 7 150° SO
Sa, 20.07. 22:00 6 1 11 90° O
Sa, 20.07. 21:30 7 2 11 100° O
Ortszeit Untergrenze Bedeckung Gattung
total tief tief mittel hoch
Sa, 20.07. 20:00 9000 m 8/8 0/8 - - -
Sa, 20.07. 14:00 1800 m 1/8 1/8 - - -
Sa, 20.07. 8:00 5700 m 8/8 8/8 - - -
Sa, 20.07. 2:00 6000 m 8/8 8/8 - - -
Fr, 19.07. 20:00 9000 m 8/8 0/8 - - -
Fr, 19.07. 14:00 1800 m 1/8 1/8 - - -
Fr, 19.07. 8:00 - 0/8 0/8 - - -
Fr, 19.07. 2:00 6900 m 8/8 2/8 - - -
Ortszeit Bedeckungsgrad in Achtel und Wolkenuntergrenze
So, 21.07. 0:30 keine Wolken
So, 21.07. 0:20 keine Wolken
So, 21.07. 0:10 keine Wolken
So, 21.07. 0:00 4(7800m)
Sa, 20.07. 23:50 4(7800m)
Sa, 20.07. 23:40 8
Sa, 20.07. 23:30 8(7500m) 8(8100m)
Sa, 20.07. 23:00 8(7800m)
Sa, 20.07. 22:30 8(8100m) 8(8700m)
Sa, 20.07. 22:00 8(8400m) 8(9000m)
Sa, 20.07. 21:30 8(8400m)
Ortszeit Luftdruck NN (hPa) Tendenz (hPa in 3 Std.)
Sa, 20.07. 20:00 1010 - 0,9
Sa, 20.07. 14:00 1012 - 1,2
Sa, 20.07. 8:00 1015 - 0,9
Sa, 20.07. 2:00 1017 - 0,9
Fr, 19.07. 20:00 1018 - 1,3
Fr, 19.07. 14:00 1020 - 1,3
Fr, 19.07. 8:00 1022 - 0,1
Fr, 19.07. 2:00 1023 + 0,3
Ortszeit Luftdruck NN (hPa) Tendenz (hPa in 3 Std.)
So, 21.07. 0:30 1010 - 0,3
So, 21.07. 0:20 1010 keine Meldung
So, 21.07. 0:10 1010 keine Meldung
So, 21.07. 0:00 1010 - 0,2
Sa, 20.07. 23:50 1010 keine Meldung
Sa, 20.07. 23:40 1010 keine Meldung
Sa, 20.07. 23:30 1010 - 0,1
Sa, 20.07. 23:00 1010 0,0
Sa, 20.07. 22:30 1010 + 0,1
Sa, 20.07. 22:00 1010 - 0,1
Sa, 20.07. 21:30 1010 - 0,1
Ortszeit Schneehöhe (cm)
Sa, 20.07. 20:00 0
Sa, 20.07. 14:00 0
Sa, 20.07. 8:00 0
Sa, 20.07. 2:00 0
Fr, 19.07. 20:00 0
Fr, 19.07. 14:00 0
Fr, 19.07. 8:00 0
Fr, 19.07. 2:00 0
Ortszeit Schneehöhe (cm)
So, 21.07. 0:30 0
So, 21.07. 0:20 0
So, 21.07. 0:10 -
So, 21.07. 0:00 0
Sa, 20.07. 23:50 0
Sa, 20.07. 23:40 -
Sa, 20.07. 23:30 0
Sa, 20.07. 23:00 0
Sa, 20.07. 22:30 0
Sa, 20.07. 22:00 0
Sa, 20.07. 21:30 0
Link zu dieser Seite / Seite empfehlen

Das Wetter in ...